sensor_id;sensor_type;location;lat;lon;timestamp;P1;durP1;ratioP1;P2;durP2;ratioP2
4434;SDS011;46552;52.150;8.428;2023-03-21T00:00:13;39.57;;;13.20;;
4434;SDS011;46552;52.150;8.428;2023-03-21T00:02:41;30.53;;;13.27;;
4434;SDS011;46552;52.150;8.428;2023-03-21T00:05:08;32.40;;;12.87;;
4434;SDS011;46552;52.150;8.428;2023-03-21T00:07:35;27.33;;;11.93;;
4434;SDS011;46552;52.150;8.428;2023-03-21T00:10:03;18.73;;;10.03;;
4434;SDS011;46552;52.150;8.428;2023-03-21T00:12:32;27.30;;;12.70;;
4434;SDS011;46552;52.150;8.428;2023-03-21T00:15:01;39.70;;;14.07;;
4434;SDS011;46552;52.150;8.428;2023-03-21T00:17:30;24.70;;;12.03;;
4434;SDS011;46552;52.150;8.428;2023-03-21T00:19:57;29.07;;;14.13;;
4434;SDS011;46552;52.150;8.428;2023-03-21T00:22:24;30.87;;;13.70;;
4434;SDS011;46552;52.150;8.428;2023-03-21T00:24:52;32.93;;;13.50;;
4434;SDS011;46552;52.150;8.428;2023-03-21T00:27:19;32.67;;;12.83;;
4434;SDS011;46552;52.150;8.428;2023-03-21T00:29:48;28.90;;;12.77;;
4434;SDS011;46552;52.150;8.428;2023-03-21T00:32:16;28.10;;;13.10;;
4434;SDS011;46552;52.150;8.428;2023-03-21T00:34:43;25.40;;;13.00;;
4434;SDS011;46552;52.150;8.428;2023-03-21T00:37:11;20.90;;;12.00;;
4434;SDS011;46552;52.150;8.428;2023-03-21T00:39:40;29.53;;;13.87;;
4434;SDS011;46552;52.150;8.428;2023-03-21T00:42:08;28.70;;;12.60;;
4434;SDS011;46552;52.150;8.428;2023-03-21T00:44:35;29.20;;;14.47;;
4434;SDS011;46552;52.150;8.428;2023-03-21T00:47:06;36.57;;;15.00;;
4434;SDS011;46552;52.150;8.428;2023-03-21T00:49:34;32.40;;;13.37;;
4434;SDS011;46552;52.150;8.428;2023-03-21T00:52:02;33.23;;;14.00;;
4434;SDS011;46552;52.150;8.428;2023-03-21T00:54:32;27.40;;;13.47;;
4434;SDS011;46552;52.150;8.428;2023-03-21T00:56:59;31.33;;;14.67;;
4434;SDS011;46552;52.150;8.428;2023-03-21T00:59:27;31.80;;;17.47;;
4434;SDS011;46552;52.150;8.428;2023-03-21T01:01:54;32.43;;;15.77;;
4434;SDS011;46552;52.150;8.428;2023-03-21T01:04:27;35.13;;;14.17;;
4434;SDS011;46552;52.150;8.428;2023-03-21T01:06:54;33.13;;;16.13;;
4434;SDS011;46552;52.150;8.428;2023-03-21T01:09:22;35.13;;;16.33;;
4434;SDS011;46552;52.150;8.428;2023-03-21T01:11:50;34.60;;;15.67;;
4434;SDS011;46552;52.150;8.428;2023-03-21T01:14:19;33.50;;;15.43;;
4434;SDS011;46552;52.150;8.428;2023-03-21T01:16:48;51.80;;;14.93;;
4434;SDS011;46552;52.150;8.428;2023-03-21T01:19:16;37.53;;;16.23;;
4434;SDS011;46552;52.150;8.428;2023-03-21T01:21:46;36.20;;;16.30;;
4434;SDS011;46552;52.150;8.428;2023-03-21T01:24:13;36.40;;;16.77;;
4434;SDS011;46552;52.150;8.428;2023-03-21T01:26:41;43.37;;;18.23;;
4434;SDS011;46552;52.150;8.428;2023-03-21T01:29:08;39.00;;;19.93;;
4434;SDS011;46552;52.150;8.428;2023-03-21T01:31:35;39.03;;;18.80;;
4434;SDS011;46552;52.150;8.428;2023-03-21T01:34:03;34.43;;;19.07;;
4434;SDS011;46552;52.150;8.428;2023-03-21T01:36:30;41.47;;;18.83;;
4434;SDS011;46552;52.150;8.428;2023-03-21T01:39:01;47.47;;;18.90;;
4434;SDS011;46552;52.150;8.428;2023-03-21T01:41:29;41.90;;;18.83;;
4434;SDS011;46552;52.150;8.428;2023-03-21T01:43:58;62.30;;;23.40;;
4434;SDS011;46552;52.150;8.428;2023-03-21T01:46:36;54.67;;;24.50;;
4434;SDS011;46552;52.150;8.428;2023-03-21T01:49:09;50.67;;;26.13;;
4434;SDS011;46552;52.150;8.428;2023-03-21T01:51:41;54.80;;;25.03;;
4434;SDS011;46552;52.150;8.428;2023-03-21T01:54:16;53.10;;;26.23;;
4434;SDS011;46552;52.150;8.428;2023-03-21T01:56:49;68.10;;;27.20;;
4434;SDS011;46552;52.150;8.428;2023-03-21T01:59:19;50.93;;;26.17;;
4434;SDS011;46552;52.150;8.428;2023-03-21T02:01:50;56.23;;;27.80;;
4434;SDS011;46552;52.150;8.428;2023-03-21T02:04:18;60.73;;;26.87;;
4434;SDS011;46552;52.150;8.428;2023-03-21T02:06:53;68.93;;;30.97;;
4434;SDS011;46552;52.150;8.428;2023-03-21T02:09:26;55.43;;;30.93;;
4434;SDS011;46552;52.150;8.428;2023-03-21T02:11:57;72.97;;;31.47;;
4434;SDS011;46552;52.150;8.428;2023-03-21T02:14:25;63.43;;;32.40;;
4434;SDS011;46552;52.150;8.428;2023-03-21T02:16:58;69.80;;;32.83;;
4434;SDS011;46552;52.150;8.428;2023-03-21T02:22:42;59.97;;;33.33;;
4434;SDS011;46552;52.150;8.428;2023-03-21T02:28:32;67.30;;;34.57;;
4434;SDS011;46552;52.150;8.428;2023-03-21T02:33:58;59.60;;;31.50;;
4434;SDS011;46552;52.150;8.428;2023-03-21T02:36:59;64.97;;;29.57;;
4434;SDS011;46552;52.150;8.428;2023-03-21T02:39:34;66.67;;;28.60;;
4434;SDS011;46552;52.150;8.428;2023-03-21T02:42:09;58.57;;;29.43;;
4434;SDS011;46552;52.150;8.428;2023-03-21T02:44:46;58.80;;;28.40;;
4434;SDS011;46552;52.150;8.428;2023-03-21T02:47:21;63.03;;;30.10;;
4434;SDS011;46552;52.150;8.428;2023-03-21T02:49:53;62.63;;;28.20;;
4434;SDS011;46552;52.150;8.428;2023-03-21T02:52:24;61.13;;;27.60;;
4434;SDS011;46552;52.150;8.428;2023-03-21T02:54:54;62.03;;;29.10;;
4434;SDS011;46552;52.150;8.428;2023-03-21T02:57:24;58.93;;;29.30;;
4434;SDS011;46552;52.150;8.428;2023-03-21T02:59:52;51.07;;;27.17;;
4434;SDS011;46552;52.150;8.428;2023-03-21T03:02:24;72.83;;;27.50;;
4434;SDS011;46552;52.150;8.428;2023-03-21T03:04:52;62.33;;;29.00;;
4434;SDS011;46552;52.150;8.428;2023-03-21T03:07:26;52.43;;;28.03;;
4434;SDS011;46552;52.150;8.428;2023-03-21T03:10:06;58.90;;;28.80;;
4434;SDS011;46552;52.150;8.428;2023-03-21T03:12:48;61.33;;;29.40;;
4434;SDS011;46552;52.150;8.428;2023-03-21T03:15:28;59.67;;;26.23;;
4434;SDS011;46552;52.150;8.428;2023-03-21T03:18:10;51.43;;;26.73;;
4434;SDS011;46552;52.150;8.428;2023-03-21T03:20:44;66.00;;;24.87;;
4434;SDS011;46552;52.150;8.428;2023-03-21T03:23:21;50.00;;;25.93;;
4434;SDS011;46552;52.150;8.428;2023-03-21T03:25:56;52.90;;;26.00;;
4434;SDS011;46552;52.150;8.428;2023-03-21T03:28:29;56.97;;;22.97;;
4434;SDS011;46552;52.150;8.428;2023-03-21T03:31:01;55.57;;;23.80;;
4434;SDS011;46552;52.150;8.428;2023-03-21T03:33:29;60.53;;;24.03;;
4434;SDS011;46552;52.150;8.428;2023-03-21T03:36:02;55.93;;;25.77;;
4434;SDS011;46552;52.150;8.428;2023-03-21T03:38:33;52.57;;;25.07;;
4434;SDS011;46552;52.150;8.428;2023-03-21T03:41:03;55.73;;;25.60;;
4434;SDS011;46552;52.150;8.428;2023-03-21T03:43:38;62.83;;;25.30;;
4434;SDS011;46552;52.150;8.428;2023-03-21T03:46:09;52.77;;;26.30;;
4434;SDS011;46552;52.150;8.428;2023-03-21T03:48:41;65.90;;;27.00;;
4434;SDS011;46552;52.150;8.428;2023-03-21T03:51:14;63.33;;;26.53;;
4434;SDS011;46552;52.150;8.428;2023-03-21T03:53:50;56.90;;;25.17;;
4434;SDS011;46552;52.150;8.428;2023-03-21T03:56:20;59.27;;;26.13;;
4434;SDS011;46552;52.150;8.428;2023-03-21T03:58:49;56.77;;;27.93;;
4434;SDS011;46552;52.150;8.428;2023-03-21T04:01:17;45.90;;;25.23;;
4434;SDS011;46552;52.150;8.428;2023-03-21T04:03:44;51.50;;;26.80;;
4434;SDS011;46552;52.150;8.428;2023-03-21T04:06:13;48.70;;;23.90;;
4434;SDS011;46552;52.150;8.428;2023-03-21T04:08:41;51.63;;;22.87;;
4434;SDS011;46552;52.150;8.428;2023-03-21T04:11:11;57.73;;;24.60;;
4434;SDS011;46552;52.150;8.428;2023-03-21T04:13:40;53.77;;;24.33;;
4434;SDS011;46552;52.150;8.428;2023-03-21T04:16:07;44.40;;;20.97;;
4434;SDS011;46552;52.150;8.428;2023-03-21T04:18:35;53.20;;;21.80;;
4434;SDS011;46552;52.150;8.428;2023-03-21T04:21:06;51.13;;;21.40;;
4434;SDS011;46552;52.150;8.428;2023-03-21T04:23:34;60.90;;;21.13;;
4434;SDS011;46552;52.150;8.428;2023-03-21T04:26:02;55.70;;;24.07;;
4434;SDS011;46552;52.150;8.428;2023-03-21T04:28:31;55.07;;;22.87;;
4434;SDS011;46552;52.150;8.428;2023-03-21T04:31:00;46.70;;;20.40;;
4434;SDS011;46552;52.150;8.428;2023-03-21T04:33:28;47.50;;;21.13;;
4434;SDS011;46552;52.150;8.428;2023-03-21T04:35:55;46.90;;;22.20;;
4434;SDS011;46552;52.150;8.428;2023-03-21T04:38:23;55.47;;;21.93;;
4434;SDS011;46552;52.150;8.428;2023-03-21T04:40:50;45.37;;;21.47;;
4434;SDS011;46552;52.150;8.428;2023-03-21T04:43:18;47.80;;;21.80;;
4434;SDS011;46552;52.150;8.428;2023-03-21T04:45:48;58.47;;;20.80;;
4434;SDS011;46552;52.150;8.428;2023-03-21T04:48:16;46.30;;;20.30;;
4434;SDS011;46552;52.150;8.428;2023-03-21T04:50:43;41.20;;;20.87;;
4434;SDS011;46552;52.150;8.428;2023-03-21T04:53:11;48.43;;;21.43;;
4434;SDS011;46552;52.150;8.428;2023-03-21T04:55:38;43.43;;;19.47;;
4434;SDS011;46552;52.150;8.428;2023-03-21T04:58:05;45.57;;;21.03;;
4434;SDS011;46552;52.150;8.428;2023-03-21T05:00:33;37.83;;;20.30;;
4434;SDS011;46552;52.150;8.428;2023-03-21T05:03:04;39.97;;;20.87;;
4434;SDS011;46552;52.150;8.428;2023-03-21T05:05:33;44.10;;;19.10;;
4434;SDS011;46552;52.150;8.428;2023-03-21T05:08:01;46.87;;;20.60;;
4434;SDS011;46552;52.150;8.428;2023-03-21T05:10:28;59.43;;;20.67;;
4434;SDS011;46552;52.150;8.428;2023-03-21T05:12:55;44.23;;;19.30;;
4434;SDS011;46552;52.150;8.428;2023-03-21T05:15:23;43.47;;;19.87;;
4434;SDS011;46552;52.150;8.428;2023-03-21T05:17:50;60.07;;;19.13;;
4434;SDS011;46552;52.150;8.428;2023-03-21T05:20:19;51.03;;;17.90;;
4434;SDS011;46552;52.150;8.428;2023-03-21T05:22:47;46.93;;;20.00;;
4434;SDS011;46552;52.150;8.428;2023-03-21T05:25:16;36.57;;;17.90;;
4434;SDS011;46552;52.150;8.428;2023-03-21T05:27:58;60.23;;;21.30;;
4434;SDS011;46552;52.150;8.428;2023-03-21T05:30:26;45.60;;;17.93;;
4434;SDS011;46552;52.150;8.428;2023-03-21T05:32:54;40.40;;;18.40;;
4434;SDS011;46552;52.150;8.428;2023-03-21T05:35:24;48.60;;;18.03;;
4434;SDS011;46552;52.150;8.428;2023-03-21T05:37:51;36.40;;;17.93;;
4434;SDS011;46552;52.150;8.428;2023-03-21T05:40:19;36.07;;;17.30;;
4434;SDS011;46552;52.150;8.428;2023-03-21T05:42:46;47.10;;;19.57;;
4434;SDS011;46552;52.150;8.428;2023-03-21T05:45:14;41.60;;;18.30;;
4434;SDS011;46552;52.150;8.428;2023-03-21T05:47:41;43.70;;;20.60;;
4434;SDS011;46552;52.150;8.428;2023-03-21T05:50:09;48.90;;;18.27;;
4434;SDS011;46552;52.150;8.428;2023-03-21T05:52:39;42.37;;;17.80;;
4434;SDS011;46552;52.150;8.428;2023-03-21T05:55:07;42.27;;;18.30;;
4434;SDS011;46552;52.150;8.428;2023-03-21T05:57:34;37.27;;;17.57;;
4434;SDS011;46552;52.150;8.428;2023-03-21T06:00:05;32.57;;;16.53;;
4434;SDS011;46552;52.150;8.428;2023-03-21T06:02:34;43.53;;;17.77;;
4434;SDS011;46552;52.150;8.428;2023-03-21T06:05:01;36.47;;;16.30;;
4434;SDS011;46552;52.150;8.428;2023-03-21T06:07:29;32.80;;;15.37;;
4434;SDS011;46552;52.150;8.428;2023-03-21T06:09:57;41.97;;;17.90;;
4434;SDS011;46552;52.150;8.428;2023-03-21T06:12:24;38.80;;;16.40;;
4434;SDS011;46552;52.150;8.428;2023-03-21T06:14:52;41.30;;;18.40;;
4434;SDS011;46552;52.150;8.428;2023-03-21T06:17:19;39.43;;;18.37;;
4434;SDS011;46552;52.150;8.428;2023-03-21T06:19:47;40.90;;;18.37;;
4434;SDS011;46552;52.150;8.428;2023-03-21T06:22:14;40.77;;;15.80;;
4434;SDS011;46552;52.150;8.428;2023-03-21T06:24:42;44.60;;;19.37;;
4434;SDS011;46552;52.150;8.428;2023-03-21T06:27:12;39.17;;;17.53;;
4434;SDS011;46552;52.150;8.428;2023-03-21T06:29:39;40.33;;;17.27;;
4434;SDS011;46552;52.150;8.428;2023-03-21T06:32:07;31.77;;;13.97;;
4434;SDS011;46552;52.150;8.428;2023-03-21T06:34:34;30.50;;;16.37;;
4434;SDS011;46552;52.150;8.428;2023-03-21T06:37:02;41.33;;;16.47;;
4434;SDS011;46552;52.150;8.428;2023-03-21T06:39:29;39.83;;;18.27;;
4434;SDS011;46552;52.150;8.428;2023-03-21T06:41:57;28.63;;;16.47;;
4434;SDS011;46552;52.150;8.428;2023-03-21T06:44:26;42.47;;;17.80;;
4434;SDS011;46552;52.150;8.428;2023-03-21T06:46:54;37.33;;;16.83;;
4434;SDS011;46552;52.150;8.428;2023-03-21T06:49:21;52.67;;;17.93;;
4434;SDS011;46552;52.150;8.428;2023-03-21T06:51:48;39.60;;;17.20;;
4434;SDS011;46552;52.150;8.428;2023-03-21T06:54:15;36.20;;;17.20;;
4434;SDS011;46552;52.150;8.428;2023-03-21T06:56:43;33.73;;;17.67;;
4434;SDS011;46552;52.150;8.428;2023-03-21T06:59:10;38.43;;;17.70;;
4434;SDS011;46552;52.150;8.428;2023-03-21T07:01:39;47.17;;;17.27;;
4434;SDS011;46552;52.150;8.428;2023-03-21T07:04:08;47.83;;;18.77;;
4434;SDS011;46552;52.150;8.428;2023-03-21T07:06:36;31.97;;;17.73;;
4434;SDS011;46552;52.150;8.428;2023-03-21T07:09:03;41.47;;;16.10;;
4434;SDS011;46552;52.150;8.428;2023-03-21T07:11:31;51.67;;;19.43;;
4434;SDS011;46552;52.150;8.428;2023-03-21T07:13:58;34.03;;;17.30;;
4434;SDS011;46552;52.150;8.428;2023-03-21T07:16:26;40.40;;;18.40;;
4434;SDS011;46552;52.150;8.428;2023-03-21T07:18:56;43.90;;;18.40;;
4434;SDS011;46552;52.150;8.428;2023-03-21T07:21:23;50.13;;;17.50;;
4434;SDS011;46552;52.150;8.428;2023-03-21T07:23:53;32.50;;;16.20;;
4434;SDS011;46552;52.150;8.428;2023-03-21T07:26:20;41.33;;;17.53;;
4434;SDS011;46552;52.150;8.428;2023-03-21T07:28:48;43.40;;;15.37;;
4434;SDS011;46552;52.150;8.428;2023-03-21T07:31:16;44.20;;;17.57;;
4434;SDS011;46552;52.150;8.428;2023-03-21T07:33:43;40.93;;;17.23;;
4434;SDS011;46552;52.150;8.428;2023-03-21T07:36:13;31.13;;;16.00;;
4434;SDS011;46552;52.150;8.428;2023-03-21T07:38:41;34.17;;;17.00;;
4434;SDS011;46552;52.150;8.428;2023-03-21T07:41:09;38.67;;;16.50;;
4434;SDS011;46552;52.150;8.428;2023-03-21T07:43:37;35.10;;;15.60;;
4434;SDS011;46552;52.150;8.428;2023-03-21T07:46:04;36.47;;;17.40;;
4434;SDS011;46552;52.150;8.428;2023-03-21T07:48:31;37.20;;;16.57;;
4434;SDS011;46552;52.150;8.428;2023-03-21T07:50:59;41.97;;;17.40;;
4434;SDS011;46552;52.150;8.428;2023-03-21T07:53:28;32.20;;;15.60;;
4434;SDS011;46552;52.150;8.428;2023-03-21T07:55:55;30.30;;;14.50;;
4434;SDS011;46552;52.150;8.428;2023-03-21T07:58:23;29.13;;;14.67;;
4434;SDS011;46552;52.150;8.428;2023-03-21T08:00:51;46.80;;;16.50;;
4434;SDS011;46552;52.150;8.428;2023-03-21T08:03:19;44.40;;;15.40;;
4434;SDS011;46552;52.150;8.428;2023-03-21T08:05:48;35.53;;;15.97;;
4434;SDS011;46552;52.150;8.428;2023-03-21T08:08:15;31.93;;;14.87;;
4434;SDS011;46552;52.150;8.428;2023-03-21T08:10:44;26.37;;;14.07;;
4434;SDS011;46552;52.150;8.428;2023-03-21T08:13:11;39.67;;;16.20;;
4434;SDS011;46552;52.150;8.428;2023-03-21T08:15:39;34.60;;;13.37;;
4434;SDS011;46552;52.150;8.428;2023-03-21T08:18:06;32.40;;;14.67;;
4434;SDS011;46552;52.150;8.428;2023-03-21T08:20:34;26.17;;;14.83;;
4434;SDS011;46552;52.150;8.428;2023-03-21T08:23:01;29.33;;;15.63;;
4434;SDS011;46552;52.150;8.428;2023-03-21T08:25:29;26.53;;;13.67;;
4434;SDS011;46552;52.150;8.428;2023-03-21T08:27:58;32.70;;;14.40;;
4434;SDS011;46552;52.150;8.428;2023-03-21T08:30:27;35.70;;;15.40;;
4434;SDS011;46552;52.150;8.428;2023-03-21T08:32:55;31.23;;;15.07;;
4434;SDS011;46552;52.150;8.428;2023-03-21T08:35:23;42.23;;;14.53;;
4434;SDS011;46552;52.150;8.428;2023-03-21T08:37:51;32.80;;;14.77;;
4434;SDS011;46552;52.150;8.428;2023-03-21T08:40:18;31.97;;;14.40;;
4434;SDS011;46552;52.150;8.428;2023-03-21T08:42:46;29.70;;;13.40;;
4434;SDS011;46552;52.150;8.428;2023-03-21T08:45:16;44.70;;;15.97;;
4434;SDS011;46552;52.150;8.428;2023-03-21T08:47:43;36.30;;;15.00;;
4434;SDS011;46552;52.150;8.428;2023-03-21T08:50:11;38.73;;;15.67;;
4434;SDS011;46552;52.150;8.428;2023-03-21T08:52:41;26.57;;;12.90;;
4434;SDS011;46552;52.150;8.428;2023-03-21T08:55:09;37.27;;;14.43;;
4434;SDS011;46552;52.150;8.428;2023-03-21T08:57:36;27.83;;;13.70;;
4434;SDS011;46552;52.150;8.428;2023-03-21T09:00:05;30.07;;;13.67;;
4434;SDS011;46552;52.150;8.428;2023-03-21T09:02:39;37.63;;;14.60;;
4434;SDS011;46552;52.150;8.428;2023-03-21T09:05:07;29.80;;;13.60;;
4434;SDS011;46552;52.150;8.428;2023-03-21T09:07:36;34.73;;;16.70;;
4434;SDS011;46552;52.150;8.428;2023-03-21T09:10:04;39.57;;;16.30;;
4434;SDS011;46552;52.150;8.428;2023-03-21T09:12:33;27.63;;;15.53;;
4434;SDS011;46552;52.150;8.428;2023-03-21T09:15:01;36.50;;;16.17;;
4434;SDS011;46552;52.150;8.428;2023-03-21T09:17:29;36.40;;;18.27;;
4434;SDS011;46552;52.150;8.428;2023-03-21T09:19:58;36.73;;;15.07;;
4434;SDS011;46552;52.150;8.428;2023-03-21T09:22:32;24.20;;;12.37;;
4434;SDS011;46552;52.150;8.428;2023-03-21T09:25:00;29.47;;;16.03;;
4434;SDS011;46552;52.150;8.428;2023-03-21T09:27:32;33.63;;;14.40;;
4434;SDS011;46552;52.150;8.428;2023-03-21T09:30:00;39.23;;;17.10;;
4434;SDS011;46552;52.150;8.428;2023-03-21T09:32:27;28.60;;;14.20;;
4434;SDS011;46552;52.150;8.428;2023-03-21T09:34:55;36.57;;;15.37;;
4434;SDS011;46552;52.150;8.428;2023-03-21T09:37:26;34.23;;;17.30;;
4434;SDS011;46552;52.150;8.428;2023-03-21T09:39:53;32.37;;;15.50;;
4434;SDS011;46552;52.150;8.428;2023-03-21T09:42:28;35.33;;;17.17;;
4434;SDS011;46552;52.150;8.428;2023-03-21T09:45:04;31.83;;;16.40;;
4434;SDS011;46552;52.150;8.428;2023-03-21T09:47:39;39.40;;;16.90;;
4434;SDS011;46552;52.150;8.428;2023-03-21T09:50:18;38.80;;;16.87;;
4434;SDS011;46552;52.150;8.428;2023-03-21T09:52:54;36.97;;;18.30;;
4434;SDS011;46552;52.150;8.428;2023-03-21T09:55:24;44.67;;;18.77;;
4434;SDS011;46552;52.150;8.428;2023-03-21T09:57:56;36.83;;;18.97;;
4434;SDS011;46552;52.150;8.428;2023-03-21T10:00:32;43.57;;;18.50;;
4434;SDS011;46552;52.150;8.428;2023-03-21T10:03:04;43.77;;;18.57;;
4434;SDS011;46552;52.150;8.428;2023-03-21T10:05:40;34.23;;;16.57;;
4434;SDS011;46552;52.150;8.428;2023-03-21T10:08:13;36.80;;;17.63;;
4434;SDS011;46552;52.150;8.428;2023-03-21T10:10:47;32.13;;;18.20;;
4434;SDS011;46552;52.150;8.428;2023-03-21T10:13:16;34.13;;;18.57;;
4434;SDS011;46552;52.150;8.428;2023-03-21T10:15:46;36.17;;;17.90;;
4434;SDS011;46552;52.150;8.428;2023-03-21T10:18:17;34.53;;;18.80;;
4434;SDS011;46552;52.150;8.428;2023-03-21T10:20:48;39.10;;;16.73;;
4434;SDS011;46552;52.150;8.428;2023-03-21T10:23:20;38.30;;;18.43;;
4434;SDS011;46552;52.150;8.428;2023-03-21T10:25:52;39.93;;;20.07;;
4434;SDS011;46552;52.150;8.428;2023-03-21T10:28:23;39.17;;;17.40;;
4434;SDS011;46552;52.150;8.428;2023-03-21T10:30:54;32.83;;;17.50;;
4434;SDS011;46552;52.150;8.428;2023-03-21T10:33:22;31.73;;;16.67;;
4434;SDS011;46552;52.150;8.428;2023-03-21T10:35:52;30.10;;;17.23;;
4434;SDS011;46552;52.150;8.428;2023-03-21T10:38:23;31.50;;;14.97;;
4434;SDS011;46552;52.150;8.428;2023-03-21T10:40:51;31.57;;;17.00;;
4434;SDS011;46552;52.150;8.428;2023-03-21T10:43:30;35.80;;;17.50;;
4434;SDS011;46552;52.150;8.428;2023-03-21T10:46:04;30.40;;;15.60;;
4434;SDS011;46552;52.150;8.428;2023-03-21T10:48:34;30.03;;;16.30;;
4434;SDS011;46552;52.150;8.428;2023-03-21T10:51:04;35.10;;;18.33;;
4434;SDS011;46552;52.150;8.428;2023-03-21T10:53:37;33.10;;;15.10;;
4434;SDS011;46552;52.150;8.428;2023-03-21T10:56:07;38.40;;;16.97;;
4434;SDS011;46552;52.150;8.428;2023-03-21T10:58:37;25.47;;;14.77;;
4434;SDS011;46552;52.150;8.428;2023-03-21T11:01:09;30.17;;;16.10;;
4434;SDS011;46552;52.150;8.428;2023-03-21T11:03:40;21.67;;;13.37;;
4434;SDS011;46552;52.150;8.428;2023-03-21T11:06:12;34.37;;;17.63;;
4434;SDS011;46552;52.150;8.428;2023-03-21T11:08:44;34.17;;;16.07;;
4434;SDS011;46552;52.150;8.428;2023-03-21T11:11:20;30.03;;;17.27;;
4434;SDS011;46552;52.150;8.428;2023-03-21T11:13:55;27.90;;;16.17;;
4434;SDS011;46552;52.150;8.428;2023-03-21T11:16:25;25.57;;;14.03;;
4434;SDS011;46552;52.150;8.428;2023-03-21T11:18:59;29.47;;;15.30;;
4434;SDS011;46552;52.150;8.428;2023-03-21T11:21:33;25.47;;;14.70;;
4434;SDS011;46552;52.150;8.428;2023-03-21T11:24:07;25.00;;;14.00;;
4434;SDS011;46552;52.150;8.428;2023-03-21T11:26:39;30.20;;;15.13;;
4434;SDS011;46552;52.150;8.428;2023-03-21T11:29:11;31.77;;;16.00;;
4434;SDS011;46552;52.150;8.428;2023-03-21T11:31:48;27.60;;;15.37;;
4434;SDS011;46552;52.150;8.428;2023-03-21T11:34:22;24.27;;;12.90;;
4434;SDS011;46552;52.150;8.428;2023-03-21T11:36:52;29.70;;;14.00;;
4434;SDS011;46552;52.150;8.428;2023-03-21T11:39:33;23.40;;;13.30;;
4434;SDS011;46552;52.150;8.428;2023-03-21T11:42:04;19.20;;;13.23;;
4434;SDS011;46552;52.150;8.428;2023-03-21T11:44:32;22.97;;;12.67;;
4434;SDS011;46552;52.150;8.428;2023-03-21T11:47:07;29.53;;;14.63;;
4434;SDS011;46552;52.150;8.428;2023-03-21T11:49:34;24.90;;;12.83;;
4434;SDS011;46552;52.150;8.428;2023-03-21T11:52:04;28.70;;;16.30;;
4434;SDS011;46552;52.150;8.428;2023-03-21T11:54:59;24.43;;;15.03;;
4434;SDS011;46552;52.150;8.428;2023-03-21T11:57:41;30.13;;;17.17;;
4434;SDS011;46552;52.150;8.428;2023-03-21T12:00:16;28.63;;;14.23;;
4434;SDS011;46552;52.150;8.428;2023-03-21T12:05:46;24.30;;;14.93;;
4434;SDS011;46552;52.150;8.428;2023-03-21T12:08:22;27.20;;;14.40;;
4434;SDS011;46552;52.150;8.428;2023-03-21T12:10:59;29.67;;;15.93;;
4434;SDS011;46552;52.150;8.428;2023-03-21T12:13:34;24.60;;;14.77;;
4434;SDS011;46552;52.150;8.428;2023-03-21T12:16:14;42.37;;;15.63;;
4434;SDS011;46552;52.150;8.428;2023-03-21T12:18:58;28.33;;;14.03;;
4434;SDS011;46552;52.150;8.428;2023-03-21T12:21:37;31.40;;;12.43;;
4434;SDS011;46552;52.150;8.428;2023-03-21T12:24:14;30.33;;;14.33;;
4434;SDS011;46552;52.150;8.428;2023-03-21T12:26:48;29.10;;;12.80;;
4434;SDS011;46552;52.150;8.428;2023-03-21T12:29:35;24.60;;;13.03;;
4434;SDS011;46552;52.150;8.428;2023-03-21T12:32:16;27.73;;;14.37;;
4434;SDS011;46552;52.150;8.428;2023-03-21T12:35:01;24.77;;;14.70;;
4434;SDS011;46552;52.150;8.428;2023-03-21T12:37:49;27.50;;;14.33;;
4434;SDS011;46552;52.150;8.428;2023-03-21T12:40:24;25.20;;;14.00;;
4434;SDS011;46552;52.150;8.428;2023-03-21T12:43:11;43.67;;;14.60;;
4434;SDS011;46552;52.150;8.428;2023-03-21T12:45:49;21.83;;;14.20;;
4434;SDS011;46552;52.150;8.428;2023-03-21T12:48:21;22.83;;;14.00;;
4434;SDS011;46552;52.150;8.428;2023-03-21T12:50:53;35.57;;;14.33;;
4434;SDS011;46552;52.150;8.428;2023-03-21T12:53:28;29.00;;;15.23;;
4434;SDS011;46552;52.150;8.428;2023-03-21T12:56:06;22.93;;;13.23;;
4434;SDS011;46552;52.150;8.428;2023-03-21T12:58:40;23.83;;;14.27;;
4434;SDS011;46552;52.150;8.428;2023-03-21T13:01:11;29.20;;;15.90;;
4434;SDS011;46552;52.150;8.428;2023-03-21T13:03:41;29.30;;;14.37;;
4434;SDS011;46552;52.150;8.428;2023-03-21T13:06:16;22.93;;;10.60;;
4434;SDS011;46552;52.150;8.428;2023-03-21T13:08:45;27.47;;;13.67;;
4434;SDS011;46552;52.150;8.428;2023-03-21T13:11:17;25.13;;;14.40;;
4434;SDS011;46552;52.150;8.428;2023-03-21T13:13:49;26.30;;;13.63;;
4434;SDS011;46552;52.150;8.428;2023-03-21T13:16:24;26.47;;;14.10;;
4434;SDS011;46552;52.150;8.428;2023-03-21T13:18:57;27.00;;;13.83;;
4434;SDS011;46552;52.150;8.428;2023-03-21T13:21:35;25.70;;;14.63;;
4434;SDS011;46552;52.150;8.428;2023-03-21T13:24:24;22.63;;;13.33;;
4434;SDS011;46552;52.150;8.428;2023-03-21T13:27:00;19.97;;;12.50;;
4434;SDS011;46552;52.150;8.428;2023-03-21T13:29:33;28.27;;;14.63;;
4434;SDS011;46552;52.150;8.428;2023-03-21T13:32:09;21.57;;;12.03;;
4434;SDS011;46552;52.150;8.428;2023-03-21T13:34:46;20.70;;;12.53;;
4434;SDS011;46552;52.150;8.428;2023-03-21T13:37:20;25.57;;;11.87;;
4434;SDS011;46552;52.150;8.428;2023-03-21T13:39:48;18.03;;;10.27;;
4434;SDS011;46552;52.150;8.428;2023-03-21T13:42:22;18.23;;;9.90;;
4434;SDS011;46552;52.150;8.428;2023-03-21T13:44:58;23.47;;;10.77;;
4434;SDS011;46552;52.150;8.428;2023-03-21T13:47:37;26.43;;;11.27;;
4434;SDS011;46552;52.150;8.428;2023-03-21T13:50:19;17.60;;;11.40;;
4434;SDS011;46552;52.150;8.428;2023-03-21T13:55:46;16.80;;;10.70;;
4434;SDS011;46552;52.150;8.428;2023-03-21T13:58:30;19.13;;;10.00;;
4434;SDS011;46552;52.150;8.428;2023-03-21T14:01:12;18.03;;;8.83;;
4434;SDS011;46552;52.150;8.428;2023-03-21T14:03:46;23.67;;;8.77;;
4434;SDS011;46552;52.150;8.428;2023-03-21T14:06:13;13.83;;;8.70;;
4434;SDS011;46552;52.150;8.428;2023-03-21T14:08:44;14.57;;;8.50;;
4434;SDS011;46552;52.150;8.428;2023-03-21T14:11:15;20.20;;;9.17;;
4434;SDS011;46552;52.150;8.428;2023-03-21T14:13:44;15.17;;;9.33;;
4434;SDS011;46552;52.150;8.428;2023-03-21T14:16:14;12.67;;;6.77;;
4434;SDS011;46552;52.150;8.428;2023-03-21T14:18:43;12.33;;;7.57;;
4434;SDS011;46552;52.150;8.428;2023-03-21T14:21:13;13.43;;;6.33;;
4434;SDS011;46552;52.150;8.428;2023-03-21T14:23:43;17.03;;;8.37;;
4434;SDS011;46552;52.150;8.428;2023-03-21T14:26:11;13.93;;;6.67;;
4434;SDS011;46552;52.150;8.428;2023-03-21T14:28:41;10.90;;;6.37;;
4434;SDS011;46552;52.150;8.428;2023-03-21T14:31:15;12.33;;;6.50;;
4434;SDS011;46552;52.150;8.428;2023-03-21T14:33:46;24.03;;;6.70;;
4434;SDS011;46552;52.150;8.428;2023-03-21T14:36:18;14.83;;;6.67;;
4434;SDS011;46552;52.150;8.428;2023-03-21T14:38:53;10.67;;;6.30;;
4434;SDS011;46552;52.150;8.428;2023-03-21T14:41:23;20.30;;;6.70;;
4434;SDS011;46552;52.150;8.428;2023-03-21T14:44:03;13.20;;;6.27;;
4434;SDS011;46552;52.150;8.428;2023-03-21T14:46:42;18.90;;;6.70;;
4434;SDS011;46552;52.150;8.428;2023-03-21T14:49:11;8.33;;;5.30;;
4434;SDS011;46552;52.150;8.428;2023-03-21T14:51:39;10.23;;;6.47;;
4434;SDS011;46552;52.150;8.428;2023-03-21T14:54:08;10.30;;;5.30;;
4434;SDS011;46552;52.150;8.428;2023-03-21T14:56:41;16.87;;;6.60;;
4434;SDS011;46552;52.150;8.428;2023-03-21T14:59:12;9.30;;;5.50;;
4434;SDS011;46552;52.150;8.428;2023-03-21T15:01:43;14.37;;;5.47;;
4434;SDS011;46552;52.150;8.428;2023-03-21T15:04:13;13.70;;;6.17;;
4434;SDS011;46552;52.150;8.428;2023-03-21T15:06:48;13.90;;;5.20;;
4434;SDS011;46552;52.150;8.428;2023-03-21T15:09:21;15.33;;;5.73;;
4434;SDS011;46552;52.150;8.428;2023-03-21T15:11:51;11.00;;;6.63;;